Time;durP1;ratioP1;P1;durP2;ratioP2;P2;SDS_P1;SDS_P2;PMS_P1;PMS_P2;Temp;Humidity;BMP_temperature;BMP_pressure;BME280_temperature;BME280_humidity;BME280_pressure;Samples;Min_cycle;Max_cycle;Signal;HPM_P1;HPM_P2
2024/02/15 00:00:38;;;;;;;2.15;1.10;;;23.10;48.00;;;;;;5072841;28;20579;-66
2024/02/15 00:03:07;;;;;;;2.45;1.20;;;23.10;47.90;;;;;;5072530;28;20186;-66
2024/02/15 00:05:36;;;;;;;1.23;1.00;;;23.10;48.00;;;;;;5072683;28;20309;-65
2024/02/15 00:08:04;;;;;;;2.92;1.15;;;23.10;48.00;;;;;;5072785;28;20290;-65
2024/02/15 00:10:31;;;;;;;1.83;1.20;;;23.10;48.00;;;;;;5072165;28;20303;-66
2024/02/15 00:12:58;;;;;;;2.38;1.33;;;23.00;47.90;;;;;;5072622;28;20270;-65
2024/02/15 00:15:25;;;;;;;1.40;1.00;;;23.10;48.00;;;;;;5072115;28;20261;-66
2024/02/15 00:17:52;;;;;;;2.03;1.20;;;23.10;48.00;;;;;;5072375;28;20190;-65
2024/02/15 00:20:21;;;;;;;1.85;1.20;;;23.00;48.00;;;;;;5072586;28;20211;-65
2024/02/15 00:22:49;;;;;;;1.58;0.80;;;23.10;48.10;;;;;;5072263;28;20269;-66
2024/02/15 00:25:16;;;;;;;2.83;1.30;;;23.10;48.10;;;;;;5072185;28;20214;-65
2024/02/15 00:27:43;;;;;;;5.07;1.38;;;23.10;48.70;;;;;;5072448;28;20193;-66
2024/02/15 00:30:11;;;;;;;2.15;1.35;;;23.10;48.10;;;;;;5072266;28;20341;-66
2024/02/15 00:32:38;;;;;;;1.52;1.10;;;23.10;48.10;;;;;;5072272;28;20220;-65
2024/02/15 00:35:07;;;;;;;2.25;1.08;;;23.00;48.00;;;;;;5072344;28;20221;-65
2024/02/15 00:37:35;;;;;;;1.65;1.10;;;23.10;48.10;;;;;;5072075;28;20202;-66
2024/02/15 00:40:03;;;;;;;2.53;1.30;;;23.10;48.10;;;;;;5071910;28;20776;-65
2024/02/15 00:42:31;;;;;;;1.20;1.00;;;23.10;48.10;;;;;;5072031;28;20564;-65
2024/02/15 00:44:58;;;;;;;1.90;1.10;;;23.00;48.10;;;;;;5072182;28;20215;-66
2024/02/15 00:47:25;;;;;;;2.08;1.33;;;23.10;48.20;;;;;;5072158;28;20186;-65
2024/02/15 00:49:52;;;;;;;1.65;1.20;;;23.00;48.10;;;;;;5072161;28;20183;-65
2024/02/15 00:52:19;;;;;;;2.40;1.30;;;23.00;48.10;;;;;;5072043;28;20191;-65
2024/02/15 00:54:48;;;;;;;3.22;1.38;;;23.00;48.10;;;;;;5072126;28;20223;-66
2024/02/15 00:57:14;;;;;;;3.72;1.35;;;23.10;48.10;;;;;;5071886;28;20708;-65
2024/02/15 00:59:41;;;;;;;2.53;1.30;;;23.10;48.20;;;;;;5072121;28;20193;-66
2024/02/15 01:02:08;;;;;;;1.73;1.27;;;23.00;48.10;;;;;;5071740;28;20557;-66
2024/02/15 01:04:35;;;;;;;2.20;1.25;;;23.00;48.10;;;;;;5071808;28;20270;-66
2024/02/15 01:07:02;;;;;;;1.45;1.30;;;23.10;48.10;;;;;;5072127;28;20194;-65
2024/02/15 01:09:30;;;;;;;2.80;1.42;;;23.10;48.20;;;;;;5071101;28;20194;-65
2024/02/15 01:11:58;;;;;;;2.58;1.30;;;23.00;48.10;;;;;;5090535;28;20305;-65
2024/02/15 01:14:29;;;;;;;1.80;1.20;;;23.10;48.10;;;;;;5090539;28;20278;-66
2024/02/15 01:16:56;;;;;;;2.60;1.40;;;23.00;48.00;;;;;;5090487;28;20740;-65
2024/02/15 01:19:24;;;;;;;1.35;1.20;;;23.10;48.10;;;;;;5091034;28;20830;-66
2024/02/15 01:21:51;;;;;;;3.17;1.40;;;23.10;48.10;;;;;;5091368;28;20300;-66
2024/02/15 01:24:17;;;;;;;2.40;1.40;;;23.00;48.10;;;;;;5094630;28;20273;-65
2024/02/15 01:26:44;;;;;;;1.63;1.20;;;23.00;48.10;;;;;;5094345;28;20308;-66
2024/02/15 01:29:13;;;;;;;2.22;1.63;;;23.00;48.10;;;;;;5095470;28;20228;-66
2024/02/15 01:31:40;;;;;;;2.20;1.48;;;23.00;48.10;;;;;;5096078;28;20221;-65
2024/02/15 01:34:07;;;;;;;2.75;1.40;;;23.00;48.00;;;;;;5095556;28;20273;-65
2024/02/15 01:36:34;;;;;;;3.42;1.30;;;23.10;48.10;;;;;;5095891;28;20316;-65
2024/02/15 01:39:01;;;;;;;2.35;1.40;;;23.00;48.00;;;;;;5095410;28;20182;-66
2024/02/15 01:41:28;;;;;;;3.80;1.20;;;23.00;48.00;;;;;;5084919;28;20263;-66
2024/02/15 01:43:55;;;;;;;1.55;1.23;;;23.00;48.10;;;;;;5082779;28;20277;-66
2024/02/15 01:46:24;;;;;;;3.13;1.48;;;23.00;48.10;;;;;;5094018;28;20391;-66
2024/02/15 01:48:52;;;;;;;2.35;1.75;;;23.00;48.00;;;;;;5093485;28;20194;-65
2024/02/15 01:51:19;;;;;;;2.78;1.35;;;23.00;48.00;;;;;;5094126;28;20634;-65
2024/02/15 01:53:46;;;;;;;4.10;1.55;;;23.00;48.00;;;;;;5094296;28;20243;-65
2024/02/15 01:56:15;;;;;;;1.77;1.42;;;23.00;48.60;;;;;;5093669;28;20257;-66
2024/02/15 01:58:45;;;;;;;2.22;1.30;;;23.00;48.00;;;;;;5094146;28;20288;-65
2024/02/15 02:01:12;;;;;;;3.63;1.50;;;23.00;48.00;;;;;;5093970;28;20214;-66
2024/02/15 02:03:41;;;;;;;3.85;1.48;;;23.00;48.00;;;;;;5092987;28;20198;-65
2024/02/15 02:06:08;;;;;;;1.88;1.40;;;23.00;48.00;;;;;;5093525;28;20301;-65
2024/02/15 02:08:36;;;;;;;2.70;1.38;;;23.00;47.90;;;;;;5094135;28;20277;-65
2024/02/15 02:11:04;;;;;;;2.22;1.40;;;23.00;47.90;;;;;;5086637;28;20218;-65
2024/02/15 02:13:31;;;;;;;2.75;1.52;;;23.00;47.90;;;;;;5089322;28;20269;-66
2024/02/15 02:15:59;;;;;;;2.90;1.60;;;23.00;47.90;;;;;;5087301;28;20222;-65
2024/02/15 02:18:26;;;;;;;3.20;1.50;;;23.00;47.90;;;;;;5093479;28;20222;-65
2024/02/15 02:20:55;;;;;;;4.20;1.63;;;23.00;47.80;;;;;;5093514;28;20213;-66
2024/02/15 02:23:26;;;;;;;2.45;1.50;;;23.00;47.80;;;;;;5091724;28;20194;-65
2024/02/15 02:25:56;;;;;;;2.38;1.63;;;23.00;47.80;;;;;;5080890;28;20309;-66
2024/02/15 02:28:23;;;;;;;2.33;1.50;;;23.00;47.80;;;;;;5092866;28;20312;-66
2024/02/15 02:30:50;;;;;;;2.65;1.60;;;23.00;47.80;;;;;;5092991;28;20717;-66
2024/02/15 02:33:18;;;;;;;3.10;1.65;;;23.00;47.80;;;;;;5093054;28;20190;-66
2024/02/15 02:35:45;;;;;;;2.72;1.70;;;23.00;47.80;;;;;;5092811;28;20762;-65
2024/02/15 02:38:14;;;;;;;4.43;1.75;;;23.00;47.80;;;;;;5093814;28;20268;-66
2024/02/15 02:40:41;;;;;;;2.67;1.70;;;23.00;47.80;;;;;;5091680;28;20225;-66
2024/02/15 02:43:10;;;;;;;2.38;1.20;;;23.00;47.80;;;;;;5092432;28;20213;-66
2024/02/15 02:45:37;;;;;;;2.10;1.50;;;23.00;47.80;;;;;;5094081;28;20209;-66
2024/02/15 02:48:05;;;;;;;3.20;1.50;;;23.00;47.80;;;;;;5094220;28;20233;-66
2024/02/15 02:50:32;;;;;;;3.17;1.70;;;23.00;47.80;;;;;;5093741;28;20218;-66
2024/02/15 02:52:59;;;;;;;2.55;1.65;;;23.00;47.80;;;;;;5094204;28;20196;-65
2024/02/15 02:55:26;;;;;;;1.83;1.50;;;22.90;47.60;;;;;;5093918;28;20316;-66
2024/02/15 02:57:54;;;;;;;2.13;1.38;;;23.00;47.80;;;;;;5093967;28;20210;-66
2024/02/15 03:00:23;;;;;;;3.03;1.60;;;23.00;47.80;;;;;;5094049;28;20222;-65
2024/02/15 03:02:50;;;;;;;3.13;1.45;;;23.00;47.70;;;;;;5093737;28;20193;-66
2024/02/15 03:05:20;;;;;;;1.92;1.40;;;23.00;47.80;;;;;;5093916;28;20300;-65
2024/02/15 03:07:47;;;;;;;4.28;1.55;;;22.90;47.70;;;;;;5093979;28;20269;-65
2024/02/15 03:10:15;;;;;;;1.70;1.38;;;23.00;47.70;;;;;;5093923;28;20235;-65
2024/02/15 03:12:45;;;;;;;3.45;1.75;;;23.00;47.70;;;;;;5092351;28;20659;-65
2024/02/15 03:15:12;;;;;;;2.35;1.35;;;23.00;47.70;;;;;;5092778;28;20221;-65
2024/02/15 03:17:41;;;;;;;2.47;1.60;;;23.00;47.60;;;;;;5092425;28;20758;-66
2024/02/15 03:20:12;;;;;;;5.20;1.77;;;23.00;47.60;;;;;;5092890;28;20269;-66
2024/02/15 03:22:39;;;;;;;3.38;1.42;;;23.00;47.60;;;;;;5093262;28;20226;-66
2024/02/15 03:25:08;;;;;;;4.63;1.65;;;23.00;47.60;;;;;;5092588;28;20194;-66
2024/02/15 03:27:37;;;;;;;2.72;1.60;;;22.90;47.50;;;;;;5091788;28;20267;-66
2024/02/15 03:30:04;;;;;;;3.20;1.70;;;22.90;47.50;;;;;;5093034;28;20248;-65
2024/02/15 03:32:31;;;;;;;3.10;1.58;;;23.00;47.50;;;;;;5093383;28;20194;-65
2024/02/15 03:35:00;;;;;;;4.53;1.65;;;23.00;47.50;;;;;;5093271;28;20282;-65
2024/02/15 03:37:27;;;;;;;1.88;1.17;;;23.00;47.50;;;;;;5092920;28;20217;-66
2024/02/15 03:39:54;;;;;;;3.33;1.40;;;22.90;47.40;;;;;;5093017;28;20190;-66
2024/02/15 03:42:21;;;;;;;3.20;1.52;;;23.00;47.50;;;;;;5093325;28;20208;-66
2024/02/15 03:44:48;;;;;;;3.72;1.60;;;23.00;47.50;;;;;;5093167;28;20269;-65
2024/02/15 03:47:15;;;;;;;2.70;1.65;;;23.00;47.50;;;;;;5092828;28;20298;-66
2024/02/15 03:49:42;;;;;;;2.50;1.33;;;22.90;47.30;;;;;;5093060;28;20225;-65
2024/02/15 03:52:10;;;;;;;1.92;1.25;;;22.90;47.40;;;;;;5093250;28;20217;-65
2024/02/15 03:54:37;;;;;;;2.47;1.10;;;22.90;47.30;;;;;;5092891;28;20193;-65
2024/02/15 03:57:06;;;;;;;1.83;1.33;;;22.90;47.30;;;;;;5092630;28;20691;-66
2024/02/15 03:59:34;;;;;;;1.88;1.40;;;22.90;47.30;;;;;;5092675;28;20629;-66
2024/02/15 04:02:03;;;;;;;1.67;1.20;;;22.90;47.30;;;;;;5092945;28;20245;-66
2024/02/15 04:04:30;;;;;;;1.60;1.38;;;22.90;47.90;;;;;;5092654;28;20202;-66
2024/02/15 04:06:58;;;;;;;2.13;1.50;;;22.90;47.30;;;;;;5093126;28;20217;-66
2024/02/15 04:09:26;;;;;;;1.60;1.20;;;22.90;47.90;;;;;;5092645;28;20189;-66
2024/02/15 04:11:53;;;;;;;3.38;1.30;;;22.90;47.20;;;;;;5085521;28;20249;-65
2024/02/15 04:14:20;;;;;;;2.30;1.55;;;22.90;47.20;;;;;;5092156;28;20189;-65
2024/02/15 04:16:47;;;;;;;1.52;1.13;;;22.90;47.20;;;;;;5092247;28;20312;-65
2024/02/15 04:19:14;;;;;;;1.75;1.40;;;22.90;47.90;;;;;;5092404;28;20186;-65
2024/02/15 04:21:43;;;;;;;2.08;1.50;;;22.90;47.20;;;;;;5092806;28;20245;-65
2024/02/15 04:24:10;;;;;;;1.65;1.35;;;22.90;47.20;;;;;;5091416;28;20273;-65
2024/02/15 04:26:39;;;;;;;2.67;1.40;;;22.90;47.10;;;;;;5091507;28;20297;-66
2024/02/15 04:29:07;;;;;;;3.25;1.63;;;22.90;47.10;;;;;;5091220;28;20305;-66
2024/02/15 04:31:36;;;;;;;1.67;1.25;;;22.90;47.10;;;;;;5092334;28;20586;-66
2024/02/15 04:34:04;;;;;;;1.90;1.40;;;22.90;47.00;;;;;;5092475;28;20186;-65
2024/02/15 04:36:33;;;;;;;2.03;1.40;;;22.90;47.00;;;;;;5092443;28;20214;-66
2024/02/15 04:39:02;;;;;;;2.80;1.55;;;22.90;47.00;;;;;;5092162;28;20194;-65
2024/02/15 04:41:29;;;;;;;2.67;1.35;;;22.90;47.00;;;;;;5092326;28;20218;-65
2024/02/15 04:43:58;;;;;;;1.60;1.30;;;22.90;47.00;;;;;;5092236;28;20277;-65
2024/02/15 04:46:25;;;;;;;1.88;1.67;;;22.90;47.00;;;;;;5092422;28;20213;-66
2024/02/15 04:48:52;;;;;;;2.40;1.50;;;22.90;47.00;;;;;;5092248;28;20197;-65
2024/02/15 04:51:19;;;;;;;2.55;1.60;;;22.90;47.00;;;;;;5092225;28;20222;-66
2024/02/15 04:53:48;;;;;;;1.40;1.15;;;22.90;47.00;;;;;;5092055;28;20190;-65
2024/02/15 04:56:16;;;;;;;2.80;1.30;;;22.90;47.00;;;;;;5092467;28;20213;-66
2024/02/15 04:58:47;;;;;;;1.42;1.02;;;22.90;47.00;;;;;;5096465;28;20221;-66
2024/02/15 05:01:16;;;;;;;2.42;1.30;;;22.80;46.90;;;;;;5096238;28;20221;-65
2024/02/15 05:03:43;;;;;;;2.90;1.70;;;22.90;47.00;;;;;;5096344;28;20265;-65
2024/02/15 05:06:12;;;;;;;3.20;1.15;;;22.90;46.90;;;;;;5096539;28;20304;-65
2024/02/15 05:08:42;;;;;;;2.47;1.45;;;22.90;46.90;;;;;;5095976;28;20194;-65
2024/02/15 05:11:14;;;;;;;2.67;1.50;;;22.90;46.90;;;;;;5089194;28;20241;-66
2024/02/15 05:13:42;;;;;;;2.35;1.55;;;22.90;46.90;;;;;;5094896;28;20570;-66
2024/02/15 05:16:09;;;;;;;2.05;1.33;;;22.80;46.80;;;;;;5095084;28;20212;-66
2024/02/15 05:18:39;;;;;;;2.50;1.50;;;22.80;46.80;;;;;;5095256;28;20293;-66
2024/02/15 05:21:09;;;;;;;1.40;1.30;;;22.90;46.80;;;;;;5095271;28;20210;-65
2024/02/15 05:23:36;;;;;;;1.70;1.40;;;22.90;46.80;;;;;;5095474;28;20190;-66
2024/02/15 05:26:04;;;;;;;1.98;1.25;;;22.90;46.80;;;;;;5094808;28;20695;-66
2024/02/15 05:28:31;;;;;;;2.03;1.58;;;22.90;46.80;;;;;;5094149;28;20253;-66
2024/02/15 05:31:12;;;;;;;3.20;1.30;;;22.80;46.70;;;;;;5095755;28;20283;-66
2024/02/15 05:33:43;;;;;;;2.65;1.50;;;22.90;46.70;;;;;;5095478;28;20190;-66
2024/02/15 05:36:11;;;;;;;1.63;1.13;;;22.90;46.70;;;;;;5095721;28;20283;-66
2024/02/15 05:38:39;;;;;;;2.22;1.50;;;22.90;46.70;;;;;;5095589;28;20292;-65
2024/02/15 05:41:07;;;;;;;3.10;1.75;;;22.90;46.70;;;;;;5095145;28;20651;-66
2024/02/15 05:43:36;;;;;;;1.52;1.30;;;22.90;46.60;;;;;;5095282;28;20190;-65
2024/02/15 05:46:03;;;;;;;3.00;1.58;;;22.90;46.60;;;;;;5095413;28;20269;-65
2024/02/15 05:48:30;;;;;;;1.85;1.40;;;22.90;46.70;;;;;;5095305;28;20285;-65
2024/02/15 05:51:00;;;;;;;1.70;1.30;;;22.80;46.50;;;;;;5095132;28;20293;-66
2024/02/15 05:53:27;;;;;;;1.20;1.10;;;22.90;46.60;;;;;;5095552;28;20193;-66
2024/02/15 05:55:54;;;;;;;2.95;1.45;;;22.80;46.50;;;;;;5095256;28;20274;-66
2024/02/15 05:58:21;;;;;;;1.73;1.27;;;22.80;46.50;;;;;;5095000;28;20206;-66
2024/02/15 06:00:49;;;;;;;2.13;1.55;;;22.80;46.50;;;;;;5094951;28;20296;-66
2024/02/15 06:03:17;;;;;;;2.55;1.38;;;22.80;46.60;;;;;;5095118;28;20189;-65
2024/02/15 06:05:44;;;;;;;1.55;1.30;;;22.80;46.50;;;;;;5094597;28;20214;-66
2024/02/15 06:08:13;;;;;;;2.58;1.73;;;22.80;46.60;;;;;;5094574;28;20197;-66
2024/02/15 06:10:40;;;;;;;2.78;1.38;;;22.80;46.60;;;;;;5088192;28;20222;-65
2024/02/15 06:13:09;;;;;;;2.05;1.50;;;22.80;46.60;;;;;;5094391;28;20194;-66
2024/02/15 06:15:36;;;;;;;2.38;1.58;;;22.80;46.50;;;;;;5094752;28;20210;-65
2024/02/15 06:18:08;;;;;;;2.38;1.40;;;22.80;46.60;;;;;;5094584;28;20226;-65
2024/02/15 06:20:35;;;;;;;2.17;1.52;;;22.80;46.60;;;;;;5094136;28;20560;-65
2024/02/15 06:23:04;;;;;;;2.17;1.73;;;22.80;46.60;;;;;;5094846;28;20191;-65
2024/02/15 06:25:33;;;;;;;2.92;1.55;;;22.80;46.50;;;;;;5094555;28;20255;-65
2024/02/15 06:28:02;;;;;;;1.63;1.30;;;22.80;46.50;;;;;;5093105;28;20193;-65
2024/02/15 06:41:29;;;;;;;1.65;1.55;;;22.80;46.40;;;;;;5094508;28;20585;-65
2024/02/15 06:43:56;;;;;;;2.25;1.50;;;22.80;46.40;;;;;;5094143;28;20186;-65
2024/02/15 06:46:24;;;;;;;1.50;1.40;;;22.80;46.40;;;;;;5094709;28;20304;-66
2024/02/15 06:48:52;;;;;;;1.95;1.50;;;22.90;46.40;;;;;;5094393;28;20252;-65
2024/02/15 06:51:19;;;;;;;1.90;1.58;;;22.80;46.30;;;;;;5094176;28;20707;-66
2024/02/15 06:53:47;;;;;;;1.70;1.60;;;22.80;46.30;;;;;;5094180;28;20272;-65
2024/02/15 06:56:14;;;;;;;2.10;1.40;;;22.80;46.40;;;;;;5094252;28;20218;-65
2024/02/15 06:58:42;;;;;;;3.35;1.65;;;22.80;46.30;;;;;;5093989;28;20559;-66
2024/02/15 07:01:09;;;;;;;1.75;1.40;;;22.80;46.30;;;;;;5094165;28;20308;-66
2024/02/15 07:03:36;;;;;;;2.00;1.45;;;22.80;46.30;;;;;;5094288;28;20190;-66
2024/02/15 07:06:03;;;;;;;1.80;1.50;;;22.80;46.30;;;;;;5093920;28;20225;-66
2024/02/15 07:08:30;;;;;;;4.55;1.63;;;22.80;46.30;;;;;;5093780;28;20563;-65
2024/02/15 07:10:58;;;;;;;1.98;1.60;;;22.80;46.40;;;;;;5089432;28;20719;-66
2024/02/15 07:13:26;;;;;;;2.70;1.48;;;22.80;46.30;;;;;;5092102;28;20190;-66
2024/02/15 07:15:54;;;;;;;2.13;1.50;;;22.80;46.40;;;;;;5092789;28;20213;-65
2024/02/15 07:18:22;;;;;;;2.20;1.40;;;22.80;46.30;;;;;;5093228;28;20202;-66
2024/02/15 07:20:49;;;;;;;2.13;1.60;;;22.80;46.30;;;;;;5091838;28;20225;-65
2024/02/15 07:23:16;;;;;;;2.28;1.60;;;22.80;46.30;;;;;;5093155;28;20272;-65
2024/02/15 07:25:43;;;;;;;1.85;1.48;;;22.80;46.30;;;;;;5092898;28;20256;-66
2024/02/15 07:28:10;;;;;;;1.75;1.50;;;22.80;46.30;;;;;;5091544;28;20202;-65
2024/02/15 07:30:37;;;;;;;2.25;1.48;;;22.80;46.30;;;;;;5091715;28;20846;-65
2024/02/15 07:33:07;;;;;;;1.90;1.27;;;22.80;46.30;;;;;;5092678;28;20751;-65
2024/02/15 07:35:34;;;;;;;2.58;1.63;;;22.80;46.30;;;;;;5092857;28;20185;-66
2024/02/15 07:38:02;;;;;;;2.05;1.50;;;22.80;46.30;;;;;;5093123;28;20259;-66
2024/02/15 07:40:29;;;;;;;2.67;1.55;;;22.80;46.30;;;;;;5092844;28;20212;-65
2024/02/15 07:42:58;;;;;;;2.13;1.70;;;22.80;46.20;;;;;;5092663;28;20186;-66
2024/02/15 07:45:25;;;;;;;1.63;1.50;;;22.80;46.30;;;;;;5092824;28;20186;-66
2024/02/15 07:47:53;;;;;;;2.05;1.50;;;22.80;46.20;;;;;;5091797;28;20196;-66
2024/02/15 07:50:22;;;;;;;2.30;1.67;;;22.80;46.20;;;;;;5088430;28;20240;-66
2024/02/15 07:52:51;;;;;;;2.10;1.60;;;22.80;46.20;;;;;;5091752;28;20667;-66
2024/02/15 07:55:18;;;;;;;1.92;1.38;;;22.80;46.20;;;;;;5092425;28;20186;-66
2024/02/15 07:57:46;;;;;;;3.35;1.65;;;22.80;46.30;;;;;;5089976;28;20640;-65
2024/02/15 08:00:16;;;;;;;4.85;1.60;;;22.90;46.40;;;;;;5091238;28;20186;-65
2024/02/15 08:02:43;;;;;;;3.65;1.40;;;22.90;46.40;;;;;;5092247;28;20267;-65
2024/02/15 08:05:11;;;;;;;7.38;1.70;;;22.90;46.50;;;;;;5091307;28;20281;-65
2024/02/15 08:07:44;;;;;;;4.97;1.75;;;22.90;46.70;;;;;;5092030;28;20329;-65
2024/02/15 08:10:13;;;;;;;3.20;1.80;;;22.90;46.90;;;;;;5092302;28;20190;-65
2024/02/15 08:12:42;;;;;;;3.05;1.63;;;22.90;47.50;;;;;;5081963;28;20217;-64
2024/02/15 08:15:11;;;;;;;5.05;1.65;;;23.00;47.10;;;;;;5089365;28;20193;-65
2024/02/15 08:17:40;;;;;;;3.40;1.33;;;23.00;47.10;;;;;;5089789;28;20241;-64
2024/02/15 08:20:09;;;;;;;8.32;1.67;;;23.00;47.20;;;;;;5085238;28;20189;-65
2024/02/15 08:22:38;;;;;;;5.50;1.65;;;23.10;47.50;;;;;;5077243;28;20306;-65
2024/02/15 08:25:10;;;;;;;2.25;1.70;;;23.10;47.30;;;;;;5086280;28;20305;-65
2024/02/15 08:27:40;;;;;;;4.40;1.67;;;23.10;47.30;;;;;;5083183;28;20228;-64
2024/02/15 08:30:10;;;;;;;3.55;1.70;;;23.10;47.20;;;;;;5075199;28;20266;-65
2024/02/15 08:32:41;;;;;;;2.40;1.80;;;23.20;47.50;;;;;;5082175;28;20650;-65
2024/02/15 08:35:09;;;;;;;4.10;2.25;;;23.20;47.40;;;;;;5082084;28;20905;-65
2024/02/15 08:37:37;;;;;;;3.20;1.80;;;23.20;47.20;;;;;;5082537;28;20272;-64
2024/02/15 08:40:10;;;;;;;4.85;1.77;;;23.30;47.30;;;;;;5075564;28;20224;-65
2024/02/15 08:42:38;;;;;;;2.95;1.67;;;23.30;47.20;;;;;;5080307;28;20727;-61
2024/02/15 08:45:08;;;;;;;5.00;1.80;;;23.30;47.20;;;;;;5080277;28;20827;-64
2024/02/15 08:47:37;;;;;;;3.13;1.60;;;23.40;47.20;;;;;;5083087;28;20217;-62
2024/02/15 08:50:05;;;;;;;3.85;1.60;;;23.50;46.90;;;;;;5079018;28;20213;-57
2024/02/15 08:52:32;;;;;;;7.07;1.98;;;23.50;46.90;;;;;;5079710;28;20213;-61
2024/02/15 08:55:00;;;;;;;2.53;1.92;;;23.50;47.00;;;;;;5096385;28;20311;-63
2024/02/15 08:57:29;;;;;;;2.50;1.80;;;23.50;46.80;;;;;;5088797;28;20217;-63
2024/02/15 08:59:55;;;;;;;3.67;1.40;;;23.50;46.80;;;;;;5087773;28;20365;-58
2024/02/15 09:02:22;;;;;;;8.25;1.70;;;23.50;46.80;;;;;;5086577;28;20296;-61
2024/02/15 09:04:49;;;;;;;2.70;1.40;;;23.50;46.70;;;;;;5082038;28;20193;-60
2024/02/15 09:07:16;;;;;;;2.70;1.52;;;23.50;46.70;;;;;;5085893;28;20253;-61
2024/02/15 09:09:43;;;;;;;2.10;1.67;;;23.50;46.70;;;;;;5086752;28;20197;-60
2024/02/15 09:12:10;;;;;;;7.68;1.48;;;23.60;46.70;;;;;;5084775;28;20249;-57
2024/02/15 09:14:40;;;;;;;2.72;1.63;;;23.60;46.70;;;;;;5085589;28;20273;-64
2024/02/15 09:17:08;;;;;;;3.60;1.77;;;23.60;46.60;;;;;;5080390;28;20245;-61
2024/02/15 09:19:35;;;;;;;3.08;1.40;;;23.60;46.60;;;;;;5078634;28;20213;-62
2024/02/15 09:22:04;;;;;;;14.57;1.60;;;23.60;46.50;;;;;;5076311;28;20317;-63
2024/02/15 09:24:33;;;;;;;2.75;1.70;;;23.60;46.50;;;;;;5068777;28;20198;-64
2024/02/15 09:27:00;;;;;;;3.97;1.70;;;23.60;46.50;;;;;;5077209;28;20202;-62
2024/02/15 09:29:29;;;;;;;4.55;1.77;;;23.60;46.40;;;;;;5083807;28;20272;-62
2024/02/15 09:31:58;;;;;;;4.75;1.67;;;23.60;46.40;;;;;;5073527;28;20970;-65
2024/02/15 09:34:25;;;;;;;3.25;1.60;;;23.70;46.40;;;;;;5087810;28;20190;-66
2024/02/15 09:36:52;;;;;;;2.47;1.50;;;23.70;46.40;;;;;;5077391;28;20229;-63
2024/02/15 09:39:19;;;;;;;3.72;1.50;;;23.70;46.40;;;;;;5076209;28;20295;-61
2024/02/15 09:41:50;;;;;;;2.97;1.60;;;23.70;46.30;;;;;;5075083;28;20201;-62
2024/02/15 09:44:17;;;;;;;2.47;1.60;;;23.70;46.20;;;;;;5083800;28;20213;-62
2024/02/15 09:46:45;;;;;;;2.55;1.65;;;23.80;46.30;;;;;;5074362;28;20190;-62
2024/02/15 09:49:15;;;;;;;1.80;1.50;;;23.80;46.30;;;;;;5089676;28;20222;-61
2024/02/15 09:51:43;;;;;;;2.10;1.27;;;23.90;46.20;;;;;;5079530;28;20194;-61
2024/02/15 09:54:13;;;;;;;2.90;1.65;;;23.90;46.20;;;;;;5088003;28;20218;-57
2024/02/15 09:56:42;;;;;;;2.60;1.60;;;23.90;46.20;;;;;;5085502;28;20744;-61
2024/02/15 09:59:09;;;;;;;3.55;1.90;;;23.90;46.20;;;;;;5089342;28;20225;-67
2024/02/15 10:01:38;;;;;;;2.17;1.40;;;24.00;46.30;;;;;;5090849;28;20283;-77
2024/02/15 10:04:07;;;;;;;3.45;1.63;;;24.00;46.30;;;;;;5082945;28;20324;-71
2024/02/15 10:06:36;;;;;;;2.85;1.40;;;24.00;46.30;;;;;;5089325;28;20197;-64
2024/02/15 10:09:26;;;;;;;2.10;1.30;;;24.00;46.20;;;;;;5090622;28;20651;-70
2024/02/15 10:11:57;;;;;;;1.85;1.20;;;24.00;46.30;;;;;;5090131;28;20554;-65
2024/02/15 10:14:25;;;;;;;4.10;1.50;;;24.00;46.30;;;;;;5090588;28;20313;-61
2024/02/15 10:16:53;;;;;;;2.70;1.55;;;24.00;46.30;;;;;;5089310;28;20233;-70
2024/02/15 10:19:24;;;;;;;2.42;1.52;;;24.00;46.30;;;;;;5088068;28;20286;-66
2024/02/15 10:21:56;;;;;;;2.38;1.40;;;24.00;46.30;;;;;;5091514;28;20182;-62
2024/02/15 10:24:24;;;;;;;5.30;1.40;;;24.00;46.20;;;;;;5082882;28;20599;-65
2024/02/15 10:26:51;;;;;;;4.70;1.40;;;24.00;46.30;;;;;;5089927;28;20201;-63
2024/02/15 10:29:20;;;;;;;2.03;1.55;;;24.00;46.30;;;;;;5088088;28;20245;-64
2024/02/15 10:31:58;;;;;;;4.15;1.80;;;24.00;46.30;;;;;;5090073;28;20198;-63
2024/02/15 10:34:27;;;;;;;5.57;1.65;;;24.00;46.30;;;;;;5088048;28;20256;-64
2024/02/15 10:36:57;;;;;;;3.78;1.50;;;24.00;46.30;;;;;;5091947;28;20281;-64
2024/02/15 10:39:24;;;;;;;2.63;1.48;;;24.00;46.30;;;;;;5092378;28;20282;-63
2024/02/15 10:41:52;;;;;;;3.58;1.83;;;24.00;46.30;;;;;;5092238;28;20235;-63
2024/02/15 10:44:21;;;;;;;5.22;1.40;;;24.00;46.30;;;;;;5092368;28;20218;-63
2024/02/15 10:46:52;;;;;;;1.88;1.30;;;24.00;46.30;;;;;;5092477;28;20325;-64
2024/02/15 10:49:20;;;;;;;2.63;1.58;;;24.00;46.30;;;;;;5091740;28;20718;-62
2024/02/15 10:51:53;;;;;;;4.35;1.42;;;24.00;46.30;;;;;;5090817;28;20269;-63
2024/02/15 10:54:36;;;;;;;2.83;1.55;;;24.00;46.30;;;;;;5092148;28;20218;-63
2024/02/15 10:57:06;;;;;;;2.80;1.63;;;24.10;46.30;;;;;;5092851;28;20190;-65
2024/02/15 10:59:37;;;;;;;3.00;1.50;;;24.10;46.30;;;;;;5093270;28;20232;-63
2024/02/15 11:02:22;;;;;;;2.25;1.30;;;24.00;46.30;;;;;;5092426;28;20590;-65
2024/02/15 11:04:55;;;;;;;2.08;1.52;;;24.10;46.30;;;;;;5092623;28;20217;-64
2024/02/15 11:07:22;;;;;;;3.08;1.52;;;24.10;46.30;;;;;;5092541;28;20272;-65
2024/02/15 11:09:51;;;;;;;1.65;1.50;;;24.10;47.00;;;;;;5087654;28;20222;-65
2024/02/15 11:12:19;;;;;;;3.10;1.80;;;24.00;46.30;;;;;;5082442;28;20221;-64
2024/02/15 11:14:47;;;;;;;2.65;1.55;;;24.00;46.30;;;;;;5091225;28;20602;-65
2024/02/15 11:17:49;;;;;;;2.53;1.48;;;24.00;46.30;;;;;;5091071;28;20542;-64
2024/02/15 11:20:48;;;;;;;4.95;1.60;;;24.00;46.30;;;;;;5091893;28;20241;-65
2024/02/15 11:23:25;;;;;;;1.92;1.40;;;24.00;46.30;;;;;;5028284;28;20220;-66
2024/02/15 11:25:53;;;;;;;2.92;1.48;;;23.90;46.20;;;;;;5028716;28;20621;-66
2024/02/15 11:28:38;;;;;;;5.82;1.50;;;23.90;46.20;;;;;;5024250;28;20657;-65
2024/02/15 11:31:12;;;;;;;3.53;1.60;;;23.90;46.20;;;;;;5026376;28;20266;-66
2024/02/15 11:33:39;;;;;;;2.10;1.55;;;23.90;46.20;;;;;;5028100;28;20216;-63
2024/02/15 11:36:08;;;;;;;2.80;1.45;;;23.80;46.00;;;;;;5029064;28;20203;-65
2024/02/15 11:38:35;;;;;;;2.22;1.35;;;23.80;46.00;;;;;;5039079;28;20220;-66
2024/02/15 11:41:05;;;;;;;2.33;1.60;;;23.80;46.10;;;;;;5048822;28;20235;-64
2024/02/15 11:43:56;;;;;;;5.10;1.65;;;23.80;46.00;;;;;;5033152;28;20215;-64
2024/02/15 11:46:25;;;;;;;4.72;1.50;;;23.80;45.90;;;;;;5028695;28;20275;-66
2024/02/15 11:48:53;;;;;;;2.50;1.33;;;23.80;45.90;;;;;;5020114;28;20605;-62
2024/02/15 11:51:36;;;;;;;2.75;1.50;;;23.80;45.90;;;;;;5022005;28;20202;-65
2024/02/15 11:54:11;;;;;;;3.85;1.67;;;23.80;45.90;;;;;;5026562;28;20232;-65
2024/02/15 11:56:54;;;;;;;2.33;1.60;;;23.80;45.80;;;;;;5024769;28;20242;-65
2024/02/15 11:59:31;;;;;;;2.90;1.65;;;23.80;45.80;;;;;;5032274;28;20236;-65
2024/02/15 12:18:46;;;;;;;4.03;1.70;;;23.90;45.50;;;;;;5089317;28;20221;-66
2024/02/15 12:21:16;;;;;;;2.80;1.50;;;23.90;45.50;;;;;;5090414;28;20198;-67
2024/02/15 12:23:43;;;;;;;2.55;1.50;;;23.90;45.40;;;;;;5089164;28;20218;-65
2024/02/15 12:26:10;;;;;;;3.05;1.70;;;23.90;45.40;;;;;;5090206;28;20297;-65
2024/02/15 12:28:39;;;;;;;4.43;1.70;;;23.90;45.40;;;;;;5089223;28;20226;-64
2024/02/15 12:31:07;;;;;;;2.85;1.70;;;23.90;45.30;;;;;;5089543;28;20697;-65
2024/02/15 12:33:34;;;;;;;5.30;1.70;;;23.90;45.30;;;;;;5087713;28;20214;-65
2024/02/15 12:36:08;;;;;;;2.70;1.67;;;23.90;45.30;;;;;;5090095;28;20681;-66
2024/02/15 12:38:37;;;;;;;2.08;1.58;;;23.90;45.30;;;;;;5089039;28;20583;-65
2024/02/15 12:41:17;;;;;;;5.10;1.60;;;23.90;45.20;;;;;;5088824;28;20256;-65
2024/02/15 12:43:46;;;;;;;2.08;1.45;;;23.90;45.30;;;;;;5086704;28;20222;-66
2024/02/15 12:46:13;;;;;;;3.90;1.83;;;23.90;45.30;;;;;;5088624;28;20277;-65
2024/02/15 12:48:40;;;;;;;2.35;1.63;;;23.90;45.30;;;;;;5086086;28;20217;-66
2024/02/15 12:51:14;;;;;;;5.47;1.98;;;23.80;45.40;;;;;;5086203;28;20206;-66
2024/02/15 12:53:41;;;;;;;9.07;2.20;;;23.80;45.40;;;;;;5080905;28;20217;-65
2024/02/15 12:56:09;;;;;;;3.85;1.90;;;23.80;45.40;;;;;;5084892;28;20731;-66
2024/02/15 12:58:36;;;;;;;3.17;1.98;;;23.80;45.50;;;;;;5086252;28;20225;-64
2024/02/15 13:01:05;;;;;;;4.60;1.70;;;23.70;45.40;;;;;;5080967;28;20217;-65
2024/02/15 13:03:32;;;;;;;5.75;1.90;;;23.70;45.40;;;;;;5078306;28;20472;-64
2024/02/15 13:05:59;;;;;;;2.92;1.98;;;23.80;45.50;;;;;;5077753;28;20197;-64
2024/02/15 13:08:26;;;;;;;2.70;1.58;;;23.80;45.50;;;;;;5082659;28;20186;-66
2024/02/15 13:10:53;;;;;;;5.05;1.98;;;23.70;45.60;;;;;;5086834;28;20186;-64
2024/02/15 13:13:21;;;;;;;2.65;1.70;;;23.80;45.70;;;;;;5085731;28;20277;-62
2024/02/15 13:15:48;;;;;;;5.88;2.20;;;23.80;45.70;;;;;;5083361;28;20581;-65
2024/02/15 13:18:17;;;;;;;5.25;1.92;;;23.80;45.80;;;;;;5087458;28;20179;-63
2024/02/15 13:20:44;;;;;;;4.97;1.92;;;23.80;45.80;;;;;;5092218;28;20232;-64
2024/02/15 13:23:19;;;;;;;6.70;2.00;;;23.90;46.00;;;;;;5089700;28;20285;-65